createdAt,value
2023-04-17T00:01:09.312Z,27.50
2023-04-17T00:03:36.060Z,29.10
2023-04-17T00:06:03.498Z,28.37
2023-04-17T00:08:30.067Z,30.80
2023-04-17T00:11:06.512Z,29.30
2023-04-17T00:13:34.129Z,29.60
2023-04-17T00:16:00.796Z,30.87
2023-04-17T00:18:27.372Z,29.87
2023-04-17T00:20:54.494Z,29.33
2023-04-17T00:23:21.229Z,29.40
2023-04-17T00:25:47.775Z,33.53
2023-04-17T00:28:14.317Z,31.40
2023-04-17T00:30:40.826Z,31.07
2023-04-17T00:33:07.397Z,30.70
2023-04-17T00:35:34.355Z,31.93
2023-04-17T00:38:01.013Z,30.97
2023-04-17T00:40:27.647Z,31.27
2023-04-17T00:43:00.046Z,31.83
2023-04-17T00:45:26.605Z,28.93
2023-04-17T00:47:53.498Z,30.90
2023-04-17T00:50:20.115Z,28.90
2023-04-17T00:52:46.704Z,29.23
2023-04-17T00:55:14.286Z,30.60
2023-04-17T00:57:42.585Z,29.10
2023-04-17T01:00:10.328Z,28.90
2023-04-17T01:02:37.794Z,30.37
2023-04-17T01:05:04.923Z,29.40
2023-04-17T01:07:31.580Z,27.23
2023-04-17T01:09:59.152Z,29.07
2023-04-17T01:12:25.900Z,28.93
2023-04-17T01:14:53.771Z,27.97
2023-04-17T01:17:21.590Z,26.93
2023-04-17T01:19:49.328Z,26.53
2023-04-17T01:22:21.861Z,28.40
2023-04-17T01:24:49.104Z,26.23
2023-04-17T01:27:15.575Z,24.60
2023-04-17T01:29:43.272Z,27.90
2023-04-17T01:32:09.961Z,26.87
2023-04-17T01:34:37.538Z,27.57
2023-04-17T01:37:04.485Z,29.03
2023-04-17T01:39:31.336Z,27.80
2023-04-17T01:41:58.252Z,26.27
2023-04-17T01:44:25.082Z,29.17
2023-04-17T01:46:51.814Z,27.73
2023-04-17T01:49:18.360Z,27.07
2023-04-17T01:51:44.866Z,26.00
2023-04-17T01:54:11.372Z,24.50
2023-04-17T01:56:37.995Z,25.73
2023-04-17T01:59:04.484Z,25.70
2023-04-17T02:01:31.183Z,24.37
2023-04-17T02:03:57.897Z,24.67
2023-04-17T02:06:24.896Z,24.87
2023-04-17T02:08:51.407Z,24.53
2023-04-17T02:11:18.394Z,24.90
2023-04-17T02:13:44.934Z,23.63
2023-04-17T02:16:12.503Z,24.33
2023-04-17T02:18:40.745Z,24.30
2023-04-17T02:21:07.279Z,24.83
2023-04-17T02:23:34.001Z,25.53
2023-04-17T02:26:00.849Z,24.07
2023-04-17T02:28:27.483Z,24.60
2023-04-17T02:30:54.050Z,25.23
2023-04-17T02:33:21.418Z,24.87
2023-04-17T02:35:48.040Z,25.03
2023-04-17T02:38:14.591Z,26.67
2023-04-17T02:40:41.350Z,25.83
2023-04-17T02:43:07.887Z,25.10
2023-04-17T02:45:34.439Z,24.60
2023-04-17T02:48:02.149Z,24.90
2023-04-17T02:50:28.748Z,26.13
2023-04-17T02:52:55.288Z,25.50
2023-04-17T02:55:22.325Z,26.73
2023-04-17T02:57:48.953Z,25.17
2023-04-17T03:00:15.864Z,27.17
2023-04-17T03:02:42.714Z,24.57
2023-04-17T03:05:11.559Z,27.40
2023-04-17T03:07:38.204Z,26.00
2023-04-17T03:10:06.270Z,25.57
2023-04-17T03:12:32.753Z,27.60
2023-04-17T03:14:59.242Z,27.87
2023-04-17T03:17:25.771Z,26.73
2023-04-17T03:19:52.283Z,26.30
2023-04-17T03:22:18.894Z,26.93
2023-04-17T03:24:45.529Z,28.13
2023-04-17T03:27:12.006Z,28.20
2023-04-17T03:29:38.619Z,26.63
2023-04-17T03:32:05.483Z,28.17
2023-04-17T03:34:32.470Z,28.70
2023-04-17T03:36:59.239Z,27.90
2023-04-17T03:39:25.940Z,27.80
2023-04-17T03:41:52.558Z,27.50
2023-04-17T03:44:19.176Z,29.13
2023-04-17T03:46:45.798Z,29.63
2023-04-17T03:49:12.657Z,29.13
2023-04-17T03:51:39.404Z,30.50
2023-04-17T03:54:05.993Z,28.27
2023-04-17T03:56:32.492Z,28.17
2023-04-17T03:58:59.195Z,29.83
2023-04-17T04:01:28.196Z,29.83
2023-04-17T04:03:55.392Z,29.67
2023-04-17T04:06:22.423Z,30.80
2023-04-17T04:08:49.469Z,28.80
2023-04-17T04:11:16.426Z,30.00
2023-04-17T04:13:42.898Z,30.80
2023-04-17T04:16:09.517Z,30.77
2023-04-17T04:18:36.661Z,29.80
2023-04-17T04:21:03.300Z,30.13
2023-04-17T04:23:30.624Z,30.60
2023-04-17T04:25:57.955Z,28.67
2023-04-17T04:28:24.537Z,30.43
2023-04-17T04:30:53.028Z,33.20
2023-04-17T04:33:20.594Z,31.00
2023-04-17T04:35:48.548Z,31.57
2023-04-17T04:38:15.442Z,29.20
2023-04-17T04:40:44.006Z,31.23
2023-04-17T04:43:10.765Z,31.47
2023-04-17T04:45:37.348Z,30.70
2023-04-17T04:48:03.878Z,32.00
2023-04-17T04:50:30.985Z,29.30
2023-04-17T04:52:57.483Z,29.30
2023-04-17T04:55:24.521Z,30.50
2023-04-17T04:57:54.186Z,30.07
2023-04-17T05:00:20.902Z,28.87
2023-04-17T05:02:47.657Z,29.90
2023-04-17T05:05:14.242Z,27.70
2023-04-17T05:07:40.924Z,29.57
2023-04-17T05:10:08.045Z,29.07
2023-04-17T05:12:35.211Z,30.77
2023-04-17T05:15:02.128Z,27.93
2023-04-17T05:17:28.631Z,30.83
2023-04-17T05:19:55.591Z,29.67
2023-04-17T05:22:22.216Z,29.13
2023-04-17T05:24:49.077Z,31.27
2023-04-17T05:27:16.593Z,30.63
2023-04-17T05:29:43.316Z,30.43
2023-04-17T05:32:09.935Z,28.50
2023-04-17T05:34:36.947Z,30.30
2023-04-17T05:37:03.609Z,31.53
2023-04-17T05:39:30.297Z,28.60
2023-04-17T05:41:57.114Z,30.47
2023-04-17T05:44:23.652Z,28.07
2023-04-17T05:46:50.352Z,30.13
2023-04-17T05:49:17.027Z,29.00
2023-04-17T05:51:43.604Z,28.90
2023-04-17T05:54:10.188Z,30.23
2023-04-17T05:56:36.681Z,28.00
2023-04-17T05:59:03.199Z,27.27
2023-04-17T06:01:29.715Z,27.87
2023-04-17T06:03:57.165Z,27.60
2023-04-17T06:06:24.003Z,27.87
2023-04-17T06:08:52.400Z,30.67
2023-04-17T06:11:18.975Z,27.30
2023-04-17T06:13:45.557Z,27.97
2023-04-17T06:16:12.681Z,28.23
2023-04-17T06:18:40.089Z,28.30
2023-04-17T06:21:07.462Z,27.23
2023-04-17T06:23:33.941Z,26.87
2023-04-17T06:26:00.447Z,26.63
2023-04-17T06:28:26.947Z,26.27
2023-04-17T06:30:53.422Z,27.60
2023-04-17T06:33:20.298Z,27.00
2023-04-17T06:35:46.869Z,26.10
2023-04-17T06:38:13.688Z,24.40
2023-04-17T06:40:40.205Z,25.50
2023-04-17T06:43:06.771Z,27.17
2023-04-17T06:45:34.240Z,26.93
2023-04-17T06:48:00.766Z,25.47
2023-04-17T06:50:28.552Z,25.43
2023-04-17T06:52:55.052Z,25.57
2023-04-17T06:55:21.839Z,26.60
2023-04-17T06:57:48.548Z,25.13
2023-04-17T07:00:15.509Z,26.47
2023-04-17T07:02:42.457Z,24.27
2023-04-17T07:05:09.399Z,25.70
2023-04-17T07:07:36.482Z,24.53
2023-04-17T07:10:04.118Z,25.20
2023-04-17T07:12:30.803Z,25.77
2023-04-17T07:14:57.345Z,26.43
2023-04-17T07:17:23.966Z,26.30
2023-04-17T07:19:50.797Z,26.00
2023-04-17T07:22:17.446Z,26.40
2023-04-17T07:24:43.999Z,25.57
2023-04-17T07:27:11.038Z,23.33
2023-04-17T07:29:37.915Z,25.60
2023-04-17T07:32:04.926Z,23.43
2023-04-17T07:34:32.775Z,25.57
2023-04-17T07:36:59.271Z,23.03
2023-04-17T07:39:30.452Z,24.83
2023-04-17T07:41:57.317Z,23.73
2023-04-17T07:44:23.805Z,24.77
2023-04-17T07:46:50.567Z,24.50
2023-04-17T07:49:17.328Z,23.27
2023-04-17T07:51:44.508Z,25.50
2023-04-17T07:54:11.231Z,24.63
2023-04-17T07:56:37.843Z,22.80
2023-04-17T07:59:04.805Z,22.23
2023-04-17T08:01:32.057Z,21.90
2023-04-17T08:03:59.090Z,20.87
2023-04-17T08:06:26.624Z,21.53
2023-04-17T08:08:53.190Z,19.90
2023-04-17T08:11:21.267Z,21.40
2023-04-17T08:13:48.050Z,19.80
2023-04-17T08:16:14.722Z,21.17
2023-04-17T08:18:42.122Z,18.60
2023-04-17T08:21:09.117Z,17.33
2023-04-17T08:23:36.010Z,17.70
2023-04-17T08:26:02.587Z,17.77
2023-04-17T08:28:29.198Z,17.40
2023-04-17T08:30:55.937Z,17.20
2023-04-17T08:33:23.105Z,17.93
2023-04-17T08:35:49.744Z,16.50
2023-04-17T08:38:16.675Z,16.90
2023-04-17T08:40:46.789Z,18.10
2023-04-17T08:43:19.501Z,17.47
2023-04-17T08:45:55.649Z,15.13
2023-04-17T08:48:23.703Z,16.80
2023-04-17T08:50:52.378Z,15.23
2023-04-17T08:53:20.563Z,13.90
2023-04-17T08:55:48.139Z,14.40
2023-04-17T08:58:15.538Z,14.13
2023-04-17T09:00:43.992Z,12.90
2023-04-17T09:03:13.733Z,11.70
2023-04-17T09:05:43.353Z,12.63
2023-04-17T09:08:12.483Z,13.67
2023-04-17T09:10:40.976Z,13.47
2023-04-17T09:13:08.695Z,12.10
2023-04-17T09:15:36.781Z,11.97
2023-04-17T09:18:04.024Z,11.53
2023-04-17T09:20:30.599Z,10.33
2023-04-17T09:23:02.508Z,11.00
2023-04-17T09:25:29.561Z,11.63
2023-04-17T09:28:13.835Z,12.23
2023-04-17T09:30:41.604Z,11.70
2023-04-17T09:33:10.441Z,11.17
2023-04-17T09:35:40.111Z,12.00
2023-04-17T09:38:07.269Z,11.07
2023-04-17T09:40:41.570Z,11.30
2023-04-17T09:43:10.295Z,12.87
2023-04-17T09:45:41.525Z,10.83
2023-04-17T09:48:12.791Z,11.20
2023-04-17T09:50:39.896Z,10.80
2023-04-17T09:53:07.460Z,10.40
2023-04-17T09:55:35.815Z,11.13
2023-04-17T09:58:04.292Z,10.50
2023-04-17T10:00:31.186Z,11.10
2023-04-17T10:02:59.109Z,10.57
2023-04-17T10:05:28.776Z,10.07
2023-04-17T10:07:56.321Z,8.90
2023-04-17T10:10:23.996Z,9.47
2023-04-17T10:12:53.459Z,10.70
2023-04-17T10:15:21.077Z,9.80
2023-04-17T10:17:49.832Z,10.93
2023-04-17T10:20:22.766Z,11.00
2023-04-17T10:22:54.422Z,10.50
2023-04-17T10:25:25.846Z,10.20
2023-04-17T10:27:58.192Z,10.33
2023-04-17T10:30:36.405Z,12.20
2023-04-17T10:33:15.739Z,10.03
2023-04-17T10:35:42.432Z,11.20
2023-04-17T10:38:09.035Z,11.43
2023-04-17T10:40:36.583Z,9.60
2023-04-17T10:43:20.429Z,10.50
2023-04-17T10:46:09.163Z,10.17
2023-04-17T10:48:41.707Z,10.13
2023-04-17T10:51:23.724Z,10.67
2023-04-17T10:54:00.894Z,10.13
2023-04-17T10:56:38.553Z,10.50
2023-04-17T10:59:07.752Z,11.50
2023-04-17T11:01:37.542Z,11.10
2023-04-17T11:04:05.067Z,10.63
2023-04-17T11:06:33.101Z,10.70
2023-04-17T11:09:00.442Z,10.60
2023-04-17T11:11:42.947Z,10.63
2023-04-17T11:14:14.472Z,10.43
2023-04-17T11:16:43.015Z,10.87
2023-04-17T11:19:18.529Z,11.40
2023-04-17T11:21:45.853Z,10.70
2023-04-17T11:24:12.368Z,11.93
2023-04-17T11:26:46.668Z,9.00
2023-04-17T11:29:17.754Z,9.10
2023-04-17T11:31:45.917Z,8.70
2023-04-17T11:34:16.940Z,8.83
2023-04-17T11:36:50.435Z,9.37
2023-04-17T11:39:17.829Z,8.63
2023-04-17T11:41:44.898Z,8.83
2023-04-17T11:44:15.806Z,9.73
2023-04-17T11:46:42.530Z,9.47
2023-04-17T11:49:09.937Z,9.17
2023-04-17T11:51:36.629Z,10.50
2023-04-17T11:54:03.158Z,10.83
2023-04-17T11:56:30.079Z,10.40
2023-04-17T11:58:58.382Z,10.90
2023-04-17T12:01:27.177Z,10.43
2023-04-17T12:03:57.778Z,10.43
2023-04-17T12:06:35.896Z,10.50
2023-04-17T12:09:02.955Z,10.50
2023-04-17T12:11:31.217Z,10.20
2023-04-17T12:13:57.751Z,9.87
2023-04-17T12:16:25.712Z,10.77
2023-04-17T12:18:52.977Z,9.90
2023-04-17T12:21:23.888Z,9.90
2023-04-17T12:23:51.117Z,10.10
2023-04-17T12:26:17.637Z,11.00
2023-04-17T12:28:44.880Z,10.10
2023-04-17T12:31:11.591Z,11.20
2023-04-17T12:33:38.151Z,11.33
2023-04-17T12:36:05.405Z,11.33
2023-04-17T12:38:32.125Z,11.80
2023-04-17T12:40:58.720Z,10.90
2023-04-17T12:43:25.372Z,12.00
2023-04-17T12:45:54.900Z,10.07
2023-04-17T12:48:21.556Z,10.30
2023-04-17T12:50:48.038Z,11.57
2023-04-17T12:53:15.290Z,10.10
2023-04-17T12:55:43.606Z,10.90
2023-04-17T12:58:12.410Z,10.03
2023-04-17T13:00:40.689Z,9.73
2023-04-17T13:03:07.507Z,9.63
2023-04-17T13:05:34.362Z,9.60
2023-04-17T13:08:09.671Z,10.27
2023-04-17T13:10:36.271Z,9.60
2023-04-17T13:13:04.614Z,8.87
2023-04-17T13:15:31.869Z,9.80
2023-04-17T13:17:58.427Z,10.97
2023-04-17T13:20:24.974Z,11.20
2023-04-17T13:22:51.421Z,11.10
2023-04-17T13:25:18.122Z,11.63
2023-04-17T13:27:44.764Z,10.30
2023-04-17T13:30:11.727Z,9.80
2023-04-17T13:32:40.277Z,10.13
2023-04-17T13:35:09.596Z,10.00
2023-04-17T13:37:36.155Z,10.33
2023-04-17T13:40:05.607Z,9.87
2023-04-17T13:42:32.360Z,10.17
2023-04-17T13:44:58.845Z,11.80
2023-04-17T13:47:25.393Z,9.73
2023-04-17T13:49:51.902Z,10.93
2023-04-17T13:52:18.443Z,11.43
2023-04-17T13:54:45.149Z,10.40
2023-04-17T13:57:14.457Z,10.43
2023-04-17T13:59:40.931Z,10.00
2023-04-17T14:02:07.717Z,10.67
2023-04-17T14:04:34.374Z,10.60
2023-04-17T14:07:01.172Z,11.13
2023-04-17T14:09:27.738Z,10.70
2023-04-17T14:11:54.225Z,11.00
2023-04-17T14:14:20.971Z,10.27
2023-04-17T14:16:49.599Z,10.57
2023-04-17T14:19:17.238Z,9.83
2023-04-17T14:21:44.041Z,9.20
2023-04-17T14:24:10.561Z,9.43
2023-04-17T14:26:38.184Z,10.60
2023-04-17T14:29:04.734Z,10.03
2023-04-17T14:31:31.823Z,9.67
2023-04-17T14:33:58.384Z,10.00
2023-04-17T14:36:24.984Z,8.93
2023-04-17T14:38:53.557Z,9.53
2023-04-17T14:41:20.408Z,9.20
2023-04-17T14:43:47.083Z,11.30
2023-04-17T14:46:13.623Z,10.27
2023-04-17T14:48:54.221Z,10.93
2023-04-17T14:51:27.097Z,10.30
2023-04-17T14:53:54.066Z,9.80
2023-04-17T14:56:21.637Z,9.13
2023-04-17T14:58:48.649Z,10.10
2023-04-17T15:01:15.307Z,9.80
2023-04-17T15:03:44.423Z,9.97
2023-04-17T15:06:12.936Z,9.80
2023-04-17T15:08:40.348Z,8.33
2023-04-17T15:11:07.051Z,10.50
2023-04-17T15:13:34.422Z,10.50
2023-04-17T15:16:01.149Z,10.00
2023-04-17T15:18:27.672Z,9.77
2023-04-17T15:20:54.554Z,8.80
2023-04-17T15:23:22.116Z,9.47
2023-04-17T15:25:48.861Z,10.30
2023-04-17T15:28:15.897Z,9.93
2023-04-17T15:30:42.655Z,9.97
2023-04-17T15:33:10.406Z,10.57
2023-04-17T15:35:37.399Z,10.30
2023-04-17T15:38:06.069Z,9.63
2023-04-17T15:40:32.844Z,9.87
2023-04-17T15:42:59.910Z,9.70
2023-04-17T15:45:26.944Z,10.67
2023-04-17T15:47:53.634Z,9.93
2023-04-17T15:50:21.299Z,9.77
2023-04-17T15:52:48.152Z,10.40
2023-04-17T15:55:15.270Z,10.33
2023-04-17T15:57:43.087Z,10.10
2023-04-17T16:00:10.662Z,9.90
2023-04-17T16:02:37.402Z,8.30
2023-04-17T16:05:04.423Z,9.77
2023-04-17T16:07:31.662Z,9.83
2023-04-17T16:09:58.493Z,9.33
2023-04-17T16:12:24.997Z,10.13
2023-04-17T16:14:51.507Z,10.23
2023-04-17T16:17:18.253Z,9.70
2023-04-17T16:19:44.759Z,10.17
2023-04-17T16:22:11.268Z,10.67
2023-04-17T16:24:37.755Z,9.63
2023-04-17T16:27:06.222Z,10.37
2023-04-17T16:29:32.754Z,10.87
2023-04-17T16:31:59.565Z,10.60
2023-04-17T16:34:26.244Z,11.40
2023-04-17T16:36:52.716Z,9.60
2023-04-17T16:39:19.197Z,10.90
2023-04-17T16:41:45.683Z,10.33
2023-04-17T16:44:12.716Z,10.37
2023-04-17T16:47:05.121Z,10.97
2023-04-17T16:49:25.753Z,10.40
2023-04-17T16:51:52.910Z,11.80
2023-04-17T16:54:21.500Z,11.87
2023-04-17T16:56:48.848Z,11.53
2023-04-17T16:59:15.809Z,12.13
2023-04-17T17:01:42.883Z,11.77
2023-04-17T17:04:09.461Z,12.20
2023-04-17T17:06:36.085Z,11.70
2023-04-17T17:09:02.982Z,11.67
2023-04-17T17:11:29.635Z,11.90
2023-04-17T17:13:57.351Z,11.30
2023-04-17T17:16:23.865Z,11.70
2023-04-17T17:18:50.382Z,10.47
2023-04-17T17:21:16.907Z,11.90
2023-04-17T17:23:43.476Z,11.47
2023-04-17T17:26:10.019Z,10.47
2023-04-17T17:28:36.849Z,10.37
2023-04-17T17:31:05.347Z,10.37
2023-04-17T17:33:32.151Z,9.90
2023-04-17T17:35:59.528Z,9.93
2023-04-17T17:38:30.818Z,9.67
2023-04-17T17:40:57.366Z,9.40
2023-04-17T17:43:24.633Z,9.47
2023-04-17T17:45:52.828Z,9.57
2023-04-17T17:48:20.498Z,8.70
2023-04-17T17:50:47.409Z,10.33
2023-04-17T17:53:14.056Z,8.97
2023-04-17T17:55:41.992Z,9.50
2023-04-17T17:58:09.125Z,9.33
2023-04-17T18:00:37.359Z,9.60
2023-04-17T18:03:04.795Z,9.97
2023-04-17T18:05:31.453Z,8.80
2023-04-17T18:07:58.222Z,10.03
2023-04-17T18:10:24.674Z,8.63
2023-04-17T18:12:51.118Z,9.20
2023-04-17T18:15:17.835Z,8.87
2023-04-17T18:17:44.395Z,9.57
2023-04-17T18:20:11.287Z,9.67
2023-04-17T18:22:38.391Z,9.13
2023-04-17T18:25:06.864Z,10.30
2023-04-17T18:27:36.261Z,9.30
2023-04-17T18:30:07.691Z,9.73
2023-04-17T18:32:34.960Z,9.47
2023-04-17T18:35:01.994Z,9.13
2023-04-17T18:37:28.795Z,9.17
2023-04-17T18:39:55.482Z,9.43
2023-04-17T18:42:22.454Z,9.40
2023-04-17T18:44:49.730Z,9.70
2023-04-17T18:47:16.293Z,10.07
2023-04-17T18:49:42.895Z,10.23
2023-04-17T18:52:09.437Z,10.87
2023-04-17T18:54:35.913Z,9.47
2023-04-17T18:57:02.441Z,9.50
2023-04-17T18:59:29.260Z,10.13
2023-04-17T19:01:55.748Z,9.10
2023-04-17T19:04:22.308Z,10.30
2023-04-17T19:06:48.791Z,8.93
2023-04-17T19:09:15.453Z,10.03
2023-04-17T19:11:42.362Z,10.00
2023-04-17T19:14:08.858Z,8.57
2023-04-17T19:16:35.839Z,9.07
2023-04-17T19:19:02.355Z,8.83
2023-04-17T19:21:31.112Z,10.23
2023-04-17T19:23:57.564Z,11.43
2023-04-17T19:26:24.284Z,10.90
2023-04-17T19:28:50.816Z,10.90
2023-04-17T19:31:17.343Z,11.00
2023-04-17T19:33:43.824Z,13.03
2023-04-17T19:36:10.331Z,11.57
2023-04-17T19:38:36.811Z,11.77
2023-04-17T19:41:15.118Z,11.67
2023-04-17T19:43:42.499Z,11.90
2023-04-17T19:46:09.324Z,13.20
2023-04-17T19:48:36.389Z,13.47
2023-04-17T19:51:05.436Z,13.27
2023-04-17T19:53:33.957Z,12.67
2023-04-17T19:56:00.786Z,13.80
2023-04-17T19:58:27.308Z,12.67
2023-04-17T20:00:54.167Z,13.30
2023-04-17T20:03:21.057Z,13.13
2023-04-17T20:05:48.740Z,12.33
2023-04-17T20:08:15.568Z,13.87
2023-04-17T20:10:42.089Z,13.43
2023-04-17T20:13:10.962Z,11.47
2023-04-17T20:15:38.016Z,11.53
2023-04-17T20:18:10.163Z,11.40
2023-04-17T20:20:37.423Z,14.17
2023-04-17T20:23:04.218Z,11.23
2023-04-17T20:25:30.951Z,10.10
2023-04-17T20:27:57.616Z,11.13
2023-04-17T20:30:24.437Z,10.43
2023-04-17T20:32:51.286Z,10.90
2023-04-17T20:35:23.713Z,11.17
2023-04-17T20:37:51.645Z,10.07
2023-04-17T20:40:19.122Z,10.57
2023-04-17T20:42:46.633Z,10.60
2023-04-17T20:45:13.439Z,10.53
2023-04-17T20:47:52.843Z,11.03
2023-04-17T20:50:22.964Z,9.90
2023-04-17T20:52:49.599Z,9.43
2023-04-17T20:55:18.228Z,9.73
2023-04-17T20:57:45.046Z,9.37
2023-04-17T21:00:12.210Z,9.00
2023-04-17T21:02:39.220Z,10.03
2023-04-17T21:05:06.669Z,9.10
2023-04-17T21:07:33.160Z,10.03
2023-04-17T21:09:59.780Z,8.90
2023-04-17T21:12:26.332Z,9.87
2023-04-17T21:14:52.906Z,9.17
2023-04-17T21:17:19.579Z,8.50
2023-04-17T21:19:46.165Z,8.70
2023-04-17T21:22:13.057Z,9.00
2023-04-17T21:24:39.717Z,8.40
2023-04-17T21:27:06.194Z,8.70
2023-04-17T21:29:32.760Z,9.40
2023-04-17T21:31:59.700Z,9.27
2023-04-17T21:34:26.424Z,8.93
2023-04-17T21:36:54.020Z,8.43
2023-04-17T21:39:21.206Z,8.40
2023-04-17T21:41:47.800Z,9.00
2023-04-17T21:44:14.962Z,8.63
2023-04-17T21:46:44.312Z,7.93
2023-04-17T21:49:10.885Z,8.33
2023-04-17T21:51:37.322Z,8.60
2023-04-17T21:54:04.265Z,7.83
2023-04-17T21:56:31.564Z,8.57
2023-04-17T21:58:58.200Z,7.73
2023-04-17T22:01:24.875Z,8.10
2023-04-17T22:03:51.438Z,8.20
2023-04-17T22:06:17.990Z,7.70
2023-04-17T22:08:44.618Z,8.00
2023-04-17T22:11:11.136Z,8.47
2023-04-17T22:13:37.608Z,8.63
2023-04-17T22:16:04.545Z,7.67
2023-04-17T22:18:31.088Z,7.53
2023-04-17T22:20:57.593Z,8.70
2023-04-17T22:23:24.111Z,8.40
2023-04-17T22:25:50.690Z,7.93
2023-04-17T22:28:17.175Z,8.27
2023-04-17T22:30:43.704Z,7.80
2023-04-17T22:33:10.189Z,7.77
2023-04-17T22:35:36.776Z,8.67
2023-04-17T22:38:03.274Z,8.03
2023-04-17T22:40:30.211Z,8.20
2023-04-17T22:42:56.754Z,8.90
2023-04-17T22:45:23.280Z,8.90
2023-04-17T22:47:49.853Z,9.30
2023-04-17T22:50:17.397Z,8.80
2023-04-17T22:52:43.889Z,8.73
2023-04-17T22:55:10.975Z,8.80
2023-04-17T22:57:37.989Z,10.00
2023-04-17T23:00:06.316Z,9.80
2023-04-17T23:02:32.893Z,9.60
2023-04-17T23:04:59.434Z,9.70
2023-04-17T23:07:26.185Z,9.80
2023-04-17T23:09:52.737Z,10.67
2023-04-17T23:12:20.008Z,10.27
2023-04-17T23:14:48.366Z,11.23
2023-04-17T23:17:14.894Z,10.47
2023-04-17T23:19:41.602Z,10.80
2023-04-17T23:22:09.202Z,10.23
2023-04-17T23:24:36.072Z,10.13
2023-04-17T23:27:02.602Z,10.73
2023-04-17T23:29:29.179Z,10.87
2023-04-17T23:31:55.747Z,9.50
2023-04-17T23:34:22.450Z,9.60
2023-04-17T23:36:48.993Z,8.00
2023-04-17T23:39:15.760Z,8.13
2023-04-17T23:41:42.770Z,7.67
2023-04-17T23:44:09.822Z,8.00
2023-04-17T23:46:36.630Z,7.57
2023-04-17T23:49:03.782Z,7.73
2023-04-17T23:51:31.517Z,7.97
2023-04-17T23:53:59.817Z,8.27
2023-04-17T23:56:29.445Z,8.27
2023-04-17T23:58:56.648Z,8.20
